createdAt,value
2022-12-20T00:02:18.550Z,67.78
2022-12-20T00:04:50.860Z,67.61
2022-12-20T00:07:23.131Z,67.58
2022-12-20T00:09:55.361Z,67.95
2022-12-20T00:12:28.957Z,67.60
2022-12-20T00:15:01.138Z,67.73
2022-12-20T00:17:33.425Z,67.64
2022-12-20T00:20:06.700Z,67.72
2022-12-20T00:22:39.378Z,67.51
2022-12-20T00:25:12.719Z,67.55
2022-12-20T00:27:44.999Z,67.85
2022-12-20T00:30:18.613Z,67.78
2022-12-20T00:32:51.402Z,67.59
2022-12-20T00:35:23.566Z,67.63
2022-12-20T00:37:55.745Z,67.75
2022-12-20T00:40:28.103Z,67.73
2022-12-20T00:43:00.285Z,67.79
2022-12-20T00:45:32.439Z,67.61
2022-12-20T00:48:04.666Z,67.61
2022-12-20T00:50:36.847Z,67.87
2022-12-20T00:53:10.716Z,67.90
2022-12-20T00:55:46.245Z,67.63
2022-12-20T00:58:18.489Z,67.97
2022-12-20T01:00:56.108Z,67.81
2022-12-20T01:03:29.956Z,67.98
2022-12-20T01:06:04.012Z,67.82
2022-12-20T01:08:36.179Z,67.62
2022-12-20T01:11:12.364Z,67.75
2022-12-20T01:13:46.725Z,67.87
2022-12-20T01:16:21.437Z,67.78
2022-12-20T01:18:55.886Z,67.81
2022-12-20T01:21:29.590Z,68.17
2022-12-20T01:24:01.860Z,67.83
2022-12-20T01:26:34.058Z,68.29
2022-12-20T01:29:06.213Z,67.79
2022-12-20T01:31:38.701Z,67.84
2022-12-20T01:34:11.140Z,67.73
2022-12-20T01:36:43.536Z,67.76
2022-12-20T01:39:17.672Z,68.20
2022-12-20T01:41:50.300Z,67.76
2022-12-20T01:44:57.047Z,67.79
2022-12-20T01:47:33.127Z,67.97
2022-12-20T01:50:07.601Z,68.07
2022-12-20T01:52:42.181Z,68.21
2022-12-20T01:55:20.007Z,68.03
2022-12-20T01:57:57.280Z,68.17
2022-12-20T02:00:30.413Z,68.09
2022-12-20T02:03:06.485Z,67.93
2022-12-20T02:05:41.027Z,68.07
2022-12-20T02:08:14.866Z,67.84
2022-12-20T02:11:12.712Z,67.88
2022-12-20T02:13:53.590Z,67.83
2022-12-20T02:16:29.263Z,67.78
2022-12-20T02:19:11.544Z,67.95
2022-12-20T02:21:47.830Z,68.13
2022-12-20T02:24:47.729Z,68.20
2022-12-20T02:27:42.554Z,68.03
2022-12-20T02:30:18.355Z,68.23
2022-12-20T02:32:58.529Z,67.99
2022-12-20T02:35:36.213Z,68.24
2022-12-20T02:38:29.390Z,68.16
2022-12-20T02:41:07.678Z,68.10
2022-12-20T02:44:01.255Z,68.44
2022-12-20T02:46:36.524Z,68.23
2022-12-20T02:49:15.784Z,68.35
2022-12-20T02:51:52.923Z,68.42
2022-12-20T02:54:26.666Z,68.43
2022-12-20T02:57:03.292Z,68.25
2022-12-20T02:59:41.912Z,68.45
2022-12-20T03:02:14.452Z,68.40
2022-12-20T03:04:47.586Z,68.65
2022-12-20T03:07:20.774Z,68.33
2022-12-20T03:09:53.253Z,68.65
2022-12-20T03:12:25.527Z,68.74
2022-12-20T03:14:57.944Z,68.49
2022-12-20T03:17:30.101Z,68.53
2022-12-20T03:20:02.348Z,68.61
2022-12-20T03:22:35.313Z,68.57
2022-12-20T03:25:08.997Z,68.67
2022-12-20T03:27:41.870Z,68.41
2022-12-20T03:30:15.949Z,68.67
2022-12-20T03:32:48.113Z,68.52
2022-12-20T03:35:20.534Z,68.51
2022-12-20T03:37:52.785Z,68.58
2022-12-20T03:40:25.117Z,68.85
2022-12-20T03:42:57.407Z,68.73
2022-12-20T03:45:29.586Z,68.79
2022-12-20T03:48:01.768Z,68.72
2022-12-20T03:50:34.668Z,68.95
2022-12-20T03:53:07.287Z,68.82
2022-12-20T03:55:41.696Z,68.78
2022-12-20T03:58:16.373Z,69.00
2022-12-20T04:00:48.762Z,68.98
2022-12-20T04:03:21.111Z,69.11
2022-12-20T04:05:53.319Z,68.92
2022-12-20T04:08:25.497Z,68.80
2022-12-20T04:11:15.335Z,68.85
2022-12-20T04:13:48.675Z,68.88
2022-12-20T04:16:23.147Z,68.92
2022-12-20T04:18:55.594Z,69.13
2022-12-20T04:21:29.985Z,69.34
2022-12-20T04:24:04.579Z,69.16
2022-12-20T04:26:37.161Z,69.02
2022-12-20T04:29:09.613Z,69.02
2022-12-20T04:31:42.455Z,69.26
2022-12-20T04:34:14.822Z,68.98
2022-12-20T04:36:47.134Z,69.07
2022-12-20T04:39:19.427Z,68.97
2022-12-20T04:41:51.566Z,69.14
2022-12-20T04:44:23.723Z,69.18
2022-12-20T04:46:57.996Z,69.30
2022-12-20T04:49:30.210Z,69.24
2022-12-20T04:52:22.397Z,69.16
2022-12-20T04:54:54.637Z,69.21
2022-12-20T04:57:26.823Z,69.41
2022-12-20T04:59:58.983Z,69.48
2022-12-20T05:02:31.235Z,69.54
2022-12-20T05:05:03.561Z,69.28
2022-12-20T05:07:35.781Z,69.28
2022-12-20T05:10:09.919Z,69.52
2022-12-20T05:12:42.077Z,69.58
2022-12-20T05:15:15.457Z,69.38
2022-12-20T05:17:47.755Z,69.30
2022-12-20T05:20:20.151Z,69.39
2022-12-20T05:23:09.751Z,69.46
2022-12-20T05:26:05.115Z,69.38
2022-12-20T05:28:37.718Z,69.53
2022-12-20T05:31:10.328Z,69.53
2022-12-20T05:33:43.198Z,69.47
2022-12-20T05:36:15.586Z,69.67
2022-12-20T05:38:47.850Z,69.58
2022-12-20T05:41:20.150Z,69.65
2022-12-20T05:43:52.478Z,69.72
2022-12-20T05:46:24.618Z,69.53
2022-12-20T05:48:56.820Z,69.61
2022-12-20T05:51:29.187Z,69.73
2022-12-20T05:54:01.362Z,69.60
2022-12-20T05:56:33.629Z,69.71
2022-12-20T05:59:05.815Z,69.56
2022-12-20T06:01:38.247Z,69.69
2022-12-20T06:04:10.602Z,69.81
2022-12-20T06:06:42.807Z,69.75
2022-12-20T06:09:15.040Z,69.48
2022-12-20T06:11:47.710Z,69.67
2022-12-20T06:14:19.946Z,69.64
2022-12-20T06:16:53.373Z,69.80
2022-12-20T06:19:26.359Z,69.56
2022-12-20T06:21:58.536Z,69.57
2022-12-20T06:24:30.703Z,69.49
2022-12-20T06:27:03.058Z,69.63
2022-12-20T06:29:36.751Z,69.58
2022-12-20T06:32:09.183Z,69.95
2022-12-20T06:34:41.588Z,69.82
2022-12-20T06:37:14.015Z,69.59
2022-12-20T06:39:46.289Z,69.71
2022-12-20T06:42:18.608Z,69.77
2022-12-20T06:44:51.073Z,69.78
2022-12-20T06:47:23.242Z,69.72
2022-12-20T06:49:55.355Z,69.35
2022-12-20T06:52:27.627Z,69.52
2022-12-20T06:54:59.822Z,69.42
2022-12-20T06:57:31.975Z,69.76
2022-12-20T07:00:04.396Z,69.62
2022-12-20T07:02:36.745Z,69.55
2022-12-20T07:05:09.990Z,69.50
2022-12-20T07:07:45.038Z,69.46
2022-12-20T07:10:17.961Z,69.46
2022-12-20T07:12:50.677Z,69.34
2022-12-20T07:15:23.415Z,69.53
2022-12-20T07:17:55.596Z,69.68
2022-12-20T07:20:28.024Z,69.49
2022-12-20T07:23:00.209Z,69.52
2022-12-20T07:25:32.491Z,69.61
2022-12-20T07:28:05.361Z,69.41
2022-12-20T07:30:38.247Z,69.81
2022-12-20T07:33:10.509Z,69.48
2022-12-20T07:35:43.922Z,69.53
2022-12-20T07:38:17.449Z,69.64
2022-12-20T07:40:49.632Z,69.54
2022-12-20T07:43:21.947Z,69.34
2022-12-20T07:45:58.366Z,69.08
2022-12-20T07:48:30.797Z,69.24
2022-12-20T07:51:07.815Z,69.08
2022-12-20T07:53:46.895Z,68.65
2022-12-20T07:56:22.263Z,69.27
2022-12-20T07:59:00.715Z,68.82
2022-12-20T08:01:34.255Z,68.47
2022-12-20T08:04:13.013Z,68.43
2022-12-20T08:06:46.628Z,68.10
2022-12-20T08:09:20.127Z,68.22
2022-12-20T08:11:54.525Z,68.52
2022-12-20T08:14:27.003Z,68.25
2022-12-20T08:16:59.568Z,68.16
2022-12-20T08:19:32.881Z,68.08
2022-12-20T08:22:06.387Z,68.48
2022-12-20T08:24:38.664Z,68.09
2022-12-20T08:27:11.451Z,68.02
2022-12-20T08:29:43.752Z,67.94
2022-12-20T08:32:16.147Z,67.73
2022-12-20T08:34:48.483Z,67.90
2022-12-20T08:37:20.984Z,67.45
2022-12-20T08:39:53.147Z,67.38
2022-12-20T08:42:25.373Z,67.08
2022-12-20T08:44:57.678Z,67.60
2022-12-20T08:47:32.130Z,67.38
2022-12-20T08:50:04.462Z,67.34
2022-12-20T08:52:36.735Z,66.85
2022-12-20T08:55:12.986Z,67.18
2022-12-20T08:57:45.559Z,67.49
2022-12-20T09:00:18.358Z,67.43
2022-12-20T09:02:52.146Z,67.51
2022-12-20T09:05:24.707Z,67.25
2022-12-20T09:07:56.917Z,66.99
2022-12-20T09:10:29.297Z,67.02
2022-12-20T09:13:01.495Z,67.11
2022-12-20T09:15:34.929Z,67.27
2022-12-20T09:18:07.768Z,66.90
2022-12-20T09:20:46.094Z,66.50
2022-12-20T09:23:18.295Z,66.85
2022-12-20T09:25:53.900Z,66.53
2022-12-20T09:28:24.825Z,66.49
2022-12-20T09:31:01.344Z,66.25
2022-12-20T09:33:34.680Z,66.27
2022-12-20T09:36:07.794Z,66.44
2022-12-20T09:38:40.086Z,66.68
2022-12-20T09:41:24.761Z,66.46
2022-12-20T09:43:57.403Z,65.80
2022-12-20T09:46:30.554Z,66.18
2022-12-20T09:49:03.820Z,66.24
2022-12-20T09:52:00.913Z,66.36
2022-12-20T09:54:42.246Z,65.98
2022-12-20T09:57:27.691Z,65.59
2022-12-20T10:00:00.589Z,65.59
2022-12-20T10:02:57.055Z,65.60
2022-12-20T10:05:41.760Z,65.25
2022-12-20T10:08:25.301Z,65.46
2022-12-20T10:11:03.614Z,65.06
2022-12-20T10:13:58.637Z,64.63
2022-12-20T10:16:42.403Z,64.80
2022-12-20T10:19:30.723Z,64.97
2022-12-20T10:22:10.958Z,65.11
2022-12-20T10:24:46.888Z,65.23
2022-12-20T10:27:22.820Z,64.64
2022-12-20T10:29:53.607Z,64.52
2022-12-20T10:32:28.656Z,64.31
2022-12-20T10:35:20.058Z,64.41
2022-12-20T10:38:09.793Z,64.61
2022-12-20T10:43:44.483Z,64.27
2022-12-20T10:46:18.057Z,64.27
2022-12-20T10:48:51.814Z,64.52
2022-12-20T10:51:25.001Z,64.30
2022-12-20T10:54:01.310Z,64.30
2022-12-20T10:56:36.507Z,64.18
2022-12-20T10:59:30.604Z,64.18
2022-12-20T11:02:03.853Z,64.18
2022-12-20T11:04:40.524Z,64.23
2022-12-20T11:07:28.533Z,64.19
2022-12-20T11:10:03.206Z,64.30
2022-12-20T11:12:35.639Z,64.06
2022-12-20T11:15:34.363Z,63.83
2022-12-20T11:18:10.649Z,63.61
2022-12-20T11:20:46.261Z,63.61
2022-12-20T11:23:29.613Z,63.56
2022-12-20T11:26:16.414Z,63.46
2022-12-20T11:29:05.177Z,63.52
2022-12-20T11:31:51.359Z,63.37
2022-12-20T11:34:36.122Z,63.49
2022-12-20T11:37:19.412Z,63.66
2022-12-20T11:40:18.268Z,63.57
2022-12-20T11:43:00.519Z,63.71
2022-12-20T11:45:40.829Z,63.61
2022-12-20T11:48:35.885Z,63.66
2022-12-20T11:51:22.862Z,63.88
2022-12-20T11:54:03.793Z,63.37
2022-12-20T11:56:44.325Z,63.49
2022-12-20T11:59:24.821Z,63.46
2022-12-20T12:02:03.990Z,63.31
2022-12-20T12:04:39.636Z,63.25
2022-12-20T12:07:18.123Z,63.34
2022-12-20T12:09:57.373Z,63.46
2022-12-20T12:12:32.739Z,63.52
2022-12-20T12:15:16.555Z,63.51
2022-12-20T12:17:52.424Z,63.39
2022-12-20T12:20:34.595Z,63.35
2022-12-20T12:23:14.743Z,63.45
2022-12-20T12:25:46.910Z,63.49
2022-12-20T12:28:22.288Z,63.47
2022-12-20T12:30:59.650Z,63.46
2022-12-20T12:33:39.016Z,63.18
2022-12-20T12:36:30.023Z,63.36
2022-12-20T12:39:26.097Z,62.98
2022-12-20T12:42:28.293Z,63.25
2022-12-20T12:45:03.321Z,63.24
2022-12-20T12:47:40.559Z,63.36
2022-12-20T12:50:24.372Z,63.28
2022-12-20T12:52:59.467Z,63.02
2022-12-20T12:55:43.985Z,63.13
2022-12-20T12:58:36.213Z,63.01
2022-12-20T13:01:12.230Z,62.97
2022-12-20T13:04:12.822Z,63.03
2022-12-20T13:07:24.810Z,63.04
2022-12-20T13:09:56.980Z,63.22
2022-12-20T13:12:58.987Z,63.20
2022-12-20T13:15:52.945Z,63.15
2022-12-20T13:18:29.904Z,63.26
2022-12-20T13:21:20.159Z,63.06
2022-12-20T13:24:38.170Z,62.97
2022-12-20T13:27:32.526Z,63.03
2022-12-20T13:30:29.335Z,63.26
2022-12-20T13:33:25.738Z,63.11
2022-12-20T13:36:03.809Z,63.05
2022-12-20T13:38:56.720Z,63.18
2022-12-20T13:41:43.852Z,63.12
2022-12-20T13:44:42.206Z,63.06
2022-12-20T13:47:32.351Z,63.37
2022-12-20T13:50:22.889Z,63.38
2022-12-20T13:52:57.498Z,63.23
2022-12-20T13:55:38.862Z,63.35
2022-12-20T13:58:17.985Z,63.26
2022-12-20T14:00:51.668Z,63.37
2022-12-20T14:03:27.000Z,63.61
2022-12-20T14:06:03.493Z,63.19
2022-12-20T14:08:39.230Z,63.40
2022-12-20T14:11:14.867Z,63.34
2022-12-20T14:13:55.909Z,63.46
2022-12-20T14:16:29.942Z,63.30
2022-12-20T14:19:06.749Z,63.56
2022-12-20T14:21:41.576Z,63.44
2022-12-20T14:24:18.340Z,63.34
2022-12-20T14:26:54.634Z,63.59
2022-12-20T14:29:32.594Z,63.53
2022-12-20T14:32:06.201Z,63.36
2022-12-20T14:34:41.984Z,63.33
2022-12-20T14:37:28.693Z,63.43
2022-12-20T14:40:04.157Z,63.40
2022-12-20T14:42:39.228Z,63.50
2022-12-20T14:45:21.588Z,63.50
2022-12-20T14:47:58.536Z,63.59
2022-12-20T14:50:38.486Z,63.38
2022-12-20T14:53:21.375Z,63.37
2022-12-20T14:55:54.321Z,63.46
2022-12-20T14:58:30.233Z,63.38
2022-12-20T15:01:17.488Z,63.55
2022-12-20T15:03:55.852Z,63.44
2022-12-20T15:06:42.544Z,63.56
2022-12-20T15:09:15.478Z,63.47
2022-12-20T15:11:48.653Z,63.57
2022-12-20T15:14:29.935Z,63.57
2022-12-20T15:17:02.164Z,63.77
2022-12-20T15:19:38.866Z,63.56
2022-12-20T15:22:18.886Z,63.67
2022-12-20T15:24:51.545Z,63.69
2022-12-20T15:27:24.551Z,63.65
2022-12-20T15:29:56.819Z,63.74
2022-12-20T15:32:31.032Z,63.74
2022-12-20T15:35:04.375Z,63.55
2022-12-20T15:37:36.671Z,63.57
2022-12-20T15:40:14.683Z,63.64
2022-12-20T15:42:46.918Z,63.70
2022-12-20T15:45:19.372Z,63.97
2022-12-20T15:47:51.562Z,63.81
2022-12-20T15:50:23.902Z,63.99
2022-12-20T15:52:58.419Z,64.18
2022-12-20T15:55:34.319Z,63.74
2022-12-20T15:58:11.861Z,63.83
2022-12-20T16:00:44.412Z,63.79
2022-12-20T16:03:21.878Z,63.88
2022-12-20T16:05:56.443Z,64.10
2022-12-20T16:08:28.694Z,64.04
2022-12-20T16:11:00.884Z,64.37
2022-12-20T16:13:33.098Z,63.95
2022-12-20T16:16:06.915Z,63.87
2022-12-20T16:18:39.109Z,64.10
2022-12-20T16:21:18.863Z,64.20
2022-12-20T16:23:51.338Z,64.11
2022-12-20T16:26:26.538Z,63.89
2022-12-20T16:29:00.602Z,63.94
2022-12-20T16:31:34.226Z,64.28
2022-12-20T16:34:11.650Z,64.29
2022-12-20T16:36:44.436Z,64.13
2022-12-20T16:39:16.661Z,64.34
2022-12-20T16:41:48.920Z,64.19
2022-12-20T16:44:21.176Z,64.13
2022-12-20T16:46:53.388Z,64.03
2022-12-20T16:49:25.763Z,64.16
2022-12-20T16:51:58.242Z,64.36
2022-12-20T16:54:30.600Z,64.23
2022-12-20T16:57:02.754Z,64.54
2022-12-20T16:59:34.993Z,64.16
2022-12-20T17:02:24.623Z,64.46
2022-12-20T17:04:57.422Z,64.66
2022-12-20T17:07:30.041Z,64.44
2022-12-20T17:10:11.405Z,64.47
2022-12-20T17:12:43.748Z,64.36
2022-12-20T17:15:24.992Z,64.72
2022-12-20T17:17:58.503Z,64.56
2022-12-20T17:20:36.414Z,64.68
2022-12-20T17:26:05.908Z,64.84
2022-12-20T17:28:38.164Z,64.73
2022-12-20T17:31:21.681Z,64.73
2022-12-20T17:33:54.298Z,64.61
2022-12-20T17:36:26.790Z,64.78
2022-12-20T17:38:59.791Z,64.65
2022-12-20T17:41:34.038Z,64.82
2022-12-20T17:44:07.855Z,64.73
2022-12-20T17:46:40.082Z,64.83
2022-12-20T17:49:12.369Z,65.10
2022-12-20T17:51:45.222Z,64.92
2022-12-20T17:54:20.610Z,64.95
2022-12-20T17:56:53.761Z,64.94
2022-12-20T17:59:27.226Z,65.00
2022-12-20T18:01:59.666Z,65.12
2022-12-20T18:04:32.309Z,65.19
2022-12-20T18:07:04.964Z,65.47
2022-12-20T18:09:37.448Z,65.07
2022-12-20T18:12:11.190Z,65.06
2022-12-20T18:14:43.369Z,65.37
2022-12-20T18:17:15.732Z,65.54
2022-12-20T18:19:48.126Z,65.49
2022-12-20T18:22:20.308Z,65.66
2022-12-20T18:24:52.486Z,65.56
2022-12-20T18:27:30.400Z,65.52
2022-12-20T18:30:03.669Z,65.56
2022-12-20T18:32:35.890Z,65.48
2022-12-20T18:35:10.711Z,65.51
2022-12-20T18:37:42.898Z,65.87
2022-12-20T18:40:15.366Z,65.38
2022-12-20T18:42:47.534Z,65.66
2022-12-20T18:45:19.950Z,65.77
2022-12-20T18:47:52.283Z,65.82
2022-12-20T18:50:24.572Z,65.81
2022-12-20T18:53:01.310Z,65.67
2022-12-20T18:55:37.434Z,65.68
2022-12-20T18:58:09.579Z,65.60
2022-12-20T19:00:41.994Z,65.95
2022-12-20T19:03:14.347Z,65.72
2022-12-20T19:05:46.847Z,66.12
2022-12-20T19:08:19.133Z,65.96
2022-12-20T19:10:51.836Z,66.02
2022-12-20T19:13:24.075Z,66.53
2022-12-20T19:16:03.906Z,65.87
2022-12-20T19:18:36.516Z,66.23
2022-12-20T19:21:10.794Z,66.04
2022-12-20T19:23:45.262Z,66.42
2022-12-20T19:26:19.638Z,66.27
2022-12-20T19:28:52.668Z,66.18
2022-12-20T19:31:26.685Z,66.12
2022-12-20T19:34:01.363Z,66.32
2022-12-20T19:36:36.763Z,66.40
2022-12-20T19:39:13.501Z,66.35
2022-12-20T19:42:07.485Z,66.44
2022-12-20T19:44:38.039Z,66.35
2022-12-20T19:47:10.278Z,66.51
2022-12-20T19:49:42.595Z,66.63
2022-12-20T19:52:15.086Z,66.46
2022-12-20T19:54:47.272Z,66.47
2022-12-20T19:57:19.588Z,66.70
2022-12-20T19:59:55.721Z,66.62
2022-12-20T20:02:28.820Z,66.68
2022-12-20T20:05:01.193Z,66.55
2022-12-20T20:07:33.381Z,66.37
2022-12-20T20:10:05.895Z,66.69
2022-12-20T20:12:39.386Z,66.37
2022-12-20T20:15:12.571Z,66.83
2022-12-20T20:17:44.816Z,66.60
2022-12-20T20:20:17.266Z,66.49
2022-12-20T20:22:49.524Z,66.79
2022-12-20T20:25:22.080Z,66.52
2022-12-20T20:27:54.275Z,66.69
2022-12-20T20:30:26.409Z,66.55
2022-12-20T20:32:59.035Z,66.91
2022-12-20T20:35:31.242Z,66.86
2022-12-20T20:38:03.741Z,67.15
2022-12-20T20:40:35.993Z,66.83
2022-12-20T20:43:08.248Z,66.98
2022-12-20T20:45:40.440Z,66.69
2022-12-20T20:48:12.736Z,66.82
2022-12-20T20:50:45.774Z,66.86
2022-12-20T20:53:17.904Z,66.97
2022-12-20T20:55:51.059Z,67.01
2022-12-20T20:58:24.611Z,67.19
2022-12-20T21:01:00.183Z,67.07
2022-12-20T21:03:33.419Z,67.43
2022-12-20T21:08:58.302Z,67.37
2022-12-20T21:11:30.575Z,67.45
2022-12-20T21:14:02.886Z,67.22
2022-12-20T21:16:36.841Z,67.42
2022-12-20T21:19:10.716Z,67.40
2022-12-20T21:21:42.896Z,67.46
2022-12-20T21:24:15.069Z,67.43
2022-12-20T21:26:47.676Z,67.51
2022-12-20T21:29:19.939Z,67.52
2022-12-20T21:31:53.017Z,67.38
2022-12-20T21:34:25.578Z,67.59
2022-12-20T21:36:58.372Z,67.68
2022-12-20T21:39:30.532Z,67.45
2022-12-20T21:42:02.729Z,67.47
2022-12-20T21:44:34.899Z,67.61
2022-12-20T21:47:07.120Z,67.66
2022-12-20T21:49:39.330Z,67.77
2022-12-20T21:52:11.517Z,67.54
2022-12-20T21:54:44.214Z,67.74
2022-12-20T21:57:16.381Z,67.70
2022-12-20T21:59:48.676Z,67.73
2022-12-20T22:02:21.128Z,67.73
2022-12-20T22:04:53.536Z,67.82
2022-12-20T22:07:25.720Z,67.91
2022-12-20T22:09:57.894Z,67.88
2022-12-20T22:12:30.767Z,67.89
2022-12-20T22:15:03.025Z,67.63
2022-12-20T22:17:35.672Z,68.12
2022-12-20T22:20:10.683Z,67.79
2022-12-20T22:22:42.834Z,67.85
2022-12-20T22:25:15.060Z,68.06
2022-12-20T22:27:47.240Z,67.88
2022-12-20T22:30:19.926Z,68.06
2022-12-20T22:32:52.285Z,68.14
2022-12-20T22:35:24.528Z,68.19
2022-12-20T22:37:57.523Z,68.01
2022-12-20T22:40:29.959Z,67.79
2022-12-20T22:43:02.213Z,67.95
2022-12-20T22:45:34.394Z,67.89
2022-12-20T22:48:07.267Z,67.94
2022-12-20T22:50:39.443Z,68.18
2022-12-20T22:53:12.662Z,68.30
2022-12-20T22:55:44.837Z,68.11
2022-12-20T22:58:17.095Z,67.96
2022-12-20T23:00:49.943Z,67.96
2022-12-20T23:03:22.282Z,67.95
2022-12-20T23:05:59.881Z,68.14
2022-12-20T23:08:34.547Z,68.16
2022-12-20T23:11:28.063Z,68.13
2022-12-20T23:14:17.721Z,67.98
2022-12-20T23:16:50.000Z,68.42
2022-12-20T23:19:22.624Z,68.29
2022-12-20T23:22:12.184Z,68.10
2022-12-20T23:24:44.297Z,68.54
2022-12-20T23:27:16.548Z,68.32
2022-12-20T23:29:48.707Z,68.74
2022-12-20T23:32:20.867Z,68.75
2022-12-20T23:34:53.458Z,68.81
2022-12-20T23:37:25.662Z,68.70
2022-12-20T23:39:58.002Z,68.59
2022-12-20T23:42:30.480Z,68.87
2022-12-20T23:45:02.750Z,68.51
2022-12-20T23:47:36.039Z,68.78
2022-12-20T23:50:09.970Z,68.91
2022-12-20T23:52:42.162Z,69.23
2022-12-20T23:55:14.316Z,69.09
2022-12-20T23:57:46.465Z,68.73
